AirNav   Pilot Hours Calculator
 
 1189 users online  

SD97 Oller Airport
Vivian, South Dakota, USA

GOING TO VIVIAN?


FAA INFORMATION EFFECTIVE 01 DECEMBER 2022

Location

FAA Identifier: SD97
Lat/Long: 43-52-39.9580N 100-21-43.4790W
43-52.665967N 100-21.724650W
43.8777661,-100.3620775
(estimated)
Elevation: 2100 ft. / 640 m (estimated)
Variation: 09E (1985)
From city: 4 miles SW of VIVIAN, SD
Time zone: UTC -6 (UTC -5 during Daylight Saving Time)
Zip code: 57576

Airport Operations

Airport use: Private use. Permission required prior to landing
Activation date: 10/1980
Control tower: no
ARTCC: MINNEAPOLIS CENTER
FSS: HURON FLIGHT SERVICE STATION
Attendance: UNATNDD
Wind indicator: yes
Segmented circle: no

Nearby radio navigation aids

VOR radial/distance  VOR name  Freq  Var
PIRr184/32.2PIERRE VORTAC113.7511E

Airport Services

Fuel available: 100

Runway Information

Runway 13/31

Dimensions: 3000 x 80 ft. / 914 x 24 m
Surface: turf/dirt
RUNWAY 13  RUNWAY 31
Traffic pattern: leftleft
Obstructions: 25 ft. plines, 50 ft. from runway70 ft. bldg, 200 ft. from runway

Airport Ownership and Management from official FAA records

Ownership: Privately-owned
Owner: CHARLES H. OLLER
28832 243RD ST
VIVIAN, SD 57576
Phone 605-683-4591
Manager: CHARLES H. OLLER
28832 243RD ST.
VIVIAN, SD 57576
Phone 605-683-4591

Additional Remarks

FOR CD CTC MINNEAPOLIS ARTCC AT 651-463-5588.

Instrument Procedures

There are no published instrument procedures at SD97.

Some nearby airports with instrument procedures:

KPIR - Pierre Regional Airport (30 nm N)
KICR - Winner Regional Airport (37 nm SE)
KSUO - Rosebud Sioux Tribal Airport (43 nm SW)
9V9 - Chamberlain Municipal Airport (46 nm E)
98D - Onida Municipal Airport (51 nm N)
 
Loc | Ops | Rwys | IFR | FBO | Links
Com | Nav | Svcs | Stats | Notes

Bismarck Aero Center
AirBoss

 
Area around SD97 (Oller Airport)
 
Road maps at: MapQuest Bing Google
 
Aerial photo
WARNING: Photo may not be current or correct
Aerial photo of SD97 (Oller Airport)
Photo by Steve Hamilton
Photo taken 29-Oct-2008

Do you have a better or more recent aerial photo of Oller Airport that you would like to share? If so, please send us your photo.

 
Sectional chart

 
Airport distance calculator
Flying to Oller Airport? Find the distance to fly.

From to SD97

Sunrise and sunset
Times for 01-Dec-2022
 Local
(UTC-6)
 Zulu
(UTC)
Morning civil twilight07:2513:25
Sunrise07:5713:57
Sunset17:0423:04
Evening civil twilight17:3723:37

Current date and time
Zulu (UTC)  02-Dec-2022 02:23:13
Local (UTC-6)  01-Dec-2022 20:23:13
 
METAR
KPIR 
31nm N 
020153Z AUTO 16012KT 10SM CLR 04/M04 A2954 RMK AO2 SLP018 T00441039
KICR 
37nm SE 
020153Z AUTO 18019G28KT 10SM CLR 06/M03 A2959 RMK AO2 PK WND 17030/0124 SLP036 T00561028
K9V9 
46nm E 
020155Z AUTO 18012KT 10SM CLR 04/M03 A2963 RMK AO2 T00391032
TAF
KPIR 
31nm N 
011722Z 0118/0218 21009KT P6SM SCT200 FM012200 14009KT P6SM SCT200 FM020600 20010KT P6SM BKN250 WS020/25040KT FM020800 25010G16KT P6SM SCT250 WS020/26040KT FM021000 29013KT P6SM BKN200 WS020/27040KT FM021300 33015G23KT P6SM BKN150 FM021700 33023G32KT P6SM BKN040
NOTAMs
Click for the latest NOTAMs
NOTAMs are issued by the DoD/FAA and will open in a separate window not controlled by AirNav.

 

 
 

Would you like to see your business listed on this page?

 If your business provides an interesting product or service to pilots, flight crews, aircraft, or users of the Oller Airport, you should consider listing it here.  To start the listing process, click on the button below
 
Add a business
 

Other Pages about Oller Airport

Update a link
 
Copyright © AirNav, LLC. All rights reserved. Privacy Policy  Contact